Terminal Aerodrome Forecast
Issued by NWS Cleveland, OH

Home | Current Version | Previous Version | Text Only | Print | Product List | Glossary On
Versions: 1 2 3 4 5 6 7 8 9 10 11 12 13 14
000
FTUS41 KCLE 211739
TAFYNG
TAF
KYNG 211739Z 2118/2218 34005KT P6SM SCT040 BKN200
     FM220700 00000KT 5SM BR SCT250
     FM221300 16006KT P6SM VCSH SCT060 BKN100
     FM221500 16004KT 4SM SHRA VCTS OVC025CB=

USA.gov is the U.S. government's official web portal to all federal, state and local government web resources and services.